New Stuyahok, Alaska
Current Conditions -  °F | °C
As of 1:56 AM on Saturday 20 Dec 2014 (Local Time) from PANW Reporting Station
Clear Clear  
Wind Chill: -3°   Ceiling: Unl
Heat Index: 13°   Visibility: 10mi
Dew Point:   Wind: 16mph
Humidity: 80%   Direction: 360°N
Pressure: 29.01"   Gusts: NA
Location:  59.45°N, 157.31°W
Report Text: PANW 201056Z AUTO 36014KT 10SM CLR M11/M13 A2901 RMK AO2 TSNO T11051133 SLP805 $
Loading
Personal Weather Stations






























Interactive Weather Map New forecast layout! Learn more

10-Day Weather Forecast

Advertisements
Track Severe Weather on mobile